createdAt,value
2018-11-28T00:01:32.414Z,14.93
2018-11-28T00:04:02.635Z,13.40
2018-11-28T00:06:32.916Z,17.13
2018-11-28T00:09:02.885Z,14.90
2018-11-28T00:11:33.019Z,20.77
2018-11-28T00:14:04.074Z,24.47
2018-11-28T00:16:34.106Z,26.17
2018-11-28T00:19:04.218Z,31.10
2018-11-28T00:21:34.438Z,24.00
2018-11-28T00:24:04.562Z,30.13
2018-11-28T00:26:34.842Z,31.37
2018-11-28T00:29:04.936Z,32.27
2018-11-28T00:31:35.350Z,33.40
2018-11-28T00:34:05.761Z,33.47
2018-11-28T00:36:36.465Z,31.53
2018-11-28T00:39:09.038Z,34.53
2018-11-28T00:41:39.083Z,32.30
2018-11-28T00:44:09.135Z,28.90
2018-11-28T00:46:39.608Z,30.63
2018-11-28T00:49:09.774Z,28.90
2018-11-28T00:51:39.950Z,24.67
2018-11-28T00:54:10.146Z,26.43
2018-11-28T00:56:40.293Z,19.87
2018-11-28T00:59:10.441Z,19.70
2018-11-28T01:01:40.550Z,23.87
2018-11-28T01:04:10.619Z,14.97
2018-11-28T01:06:40.875Z,17.30
2018-11-28T01:09:10.850Z,19.67
2018-11-28T01:11:40.803Z,18.20
2018-11-28T01:14:11.074Z,23.60
2018-11-28T01:16:41.232Z,18.57
2018-11-28T01:19:11.510Z,14.30
2018-11-28T01:21:41.582Z,16.90
2018-11-28T01:24:11.555Z,18.30
2018-11-28T01:26:41.588Z,19.53
2018-11-28T01:29:11.601Z,18.27
2018-11-28T01:31:41.563Z,15.83
2018-11-28T01:34:11.539Z,17.03
2018-11-28T01:36:41.618Z,18.47
2018-11-28T01:39:11.602Z,19.23
2018-11-28T01:41:41.815Z,15.47
2018-11-28T01:44:11.882Z,13.13
2018-11-28T01:46:42.117Z,16.80
2018-11-28T01:49:12.143Z,17.80
2018-11-28T01:51:42.108Z,18.70
2018-11-28T01:54:12.383Z,17.93
2018-11-28T01:56:42.375Z,16.10
2018-11-28T01:59:12.397Z,20.17
2018-11-28T02:01:42.430Z,14.73
2018-11-28T02:04:12.549Z,15.83
2018-11-28T02:06:42.858Z,17.20
2018-11-28T02:09:12.945Z,15.83
2018-11-28T02:11:42.832Z,15.40
2018-11-28T02:14:12.953Z,18.07
2018-11-28T02:16:42.913Z,17.83
2018-11-28T02:19:12.939Z,17.13
2018-11-28T02:21:42.905Z,17.10
2018-11-28T02:24:12.857Z,21.20
2018-11-28T02:26:42.995Z,17.93
2018-11-28T02:29:13.250Z,18.40
2018-11-28T02:31:43.230Z,18.07
2018-11-28T02:34:13.304Z,20.70
2018-11-28T02:36:43.356Z,16.10
2018-11-28T02:39:13.506Z,18.33
2018-11-28T02:41:43.460Z,42.03
2018-11-28T02:44:13.524Z,16.10
2018-11-28T02:46:43.867Z,16.90
2018-11-28T02:49:13.988Z,15.30
2018-11-28T02:51:44.243Z,15.50
2018-11-28T02:54:15.035Z,20.33
2018-11-28T02:56:45.025Z,16.47
2018-11-28T02:59:14.943Z,21.03
2018-11-28T03:01:45.673Z,23.30
2018-11-28T03:04:16.083Z,21.57
2018-11-28T03:06:46.108Z,22.27
2018-11-28T03:09:16.050Z,18.87
2018-11-28T03:11:46.180Z,21.00
2018-11-28T03:14:16.378Z,23.37
2018-11-28T03:16:46.502Z,19.13
2018-11-28T03:19:16.612Z,24.63
2018-11-28T03:21:46.944Z,21.97
2018-11-28T03:24:17.034Z,23.30
2018-11-28T03:26:47.208Z,22.50
2018-11-28T03:29:17.007Z,18.63
2018-11-28T03:31:47.037Z,18.67
2018-11-28T03:34:16.950Z,21.80
2018-11-28T03:36:46.872Z,18.67
2018-11-28T03:39:16.860Z,18.13
2018-11-28T03:41:47.054Z,25.10
2018-11-28T03:44:17.189Z,20.33
2018-11-28T03:46:47.132Z,22.53
2018-11-28T03:49:16.903Z,23.20
2018-11-28T03:51:46.933Z,23.93
2018-11-28T03:54:17.050Z,25.20
2018-11-28T03:56:47.068Z,19.47
2018-11-28T03:59:17.167Z,25.00
2018-11-28T04:01:47.364Z,25.07
2018-11-28T04:04:17.484Z,28.40
2018-11-28T04:06:47.570Z,22.87
2018-11-28T04:09:19.251Z,23.00
2018-11-28T04:11:49.367Z,19.47
2018-11-28T04:14:19.286Z,21.40
2018-11-28T04:16:49.434Z,20.90
2018-11-28T04:19:19.585Z,23.73
2018-11-28T04:21:49.682Z,21.80
2018-11-28T04:24:19.699Z,24.07
2018-11-28T04:26:50.015Z,26.60
2018-11-28T04:29:20.279Z,19.03
2018-11-28T04:31:50.490Z,24.60
2018-11-28T04:34:20.565Z,22.47
2018-11-28T04:36:50.805Z,16.23
2018-11-28T04:39:20.976Z,18.57
2018-11-28T04:41:50.880Z,23.07
2018-11-28T04:44:20.909Z,19.47
2018-11-28T04:46:51.096Z,18.27
2018-11-28T04:49:21.661Z,20.23
2018-11-28T04:51:51.823Z,16.80
2018-11-28T04:54:21.960Z,20.70
2018-11-28T04:56:52.133Z,17.23
2018-11-28T04:59:22.197Z,15.80
2018-11-28T05:01:52.408Z,17.40
2018-11-28T05:04:22.605Z,15.37
2018-11-28T05:07:55.454Z,16.07
2018-11-28T05:10:26.472Z,13.37
2018-11-28T05:12:57.024Z,14.87
2018-11-28T05:15:29.995Z,10.80
2018-11-28T05:18:00.045Z,14.67
2018-11-28T05:20:32.340Z,12.23
2018-11-28T05:23:02.567Z,39.47
2018-11-28T05:25:33.115Z,30.43
2018-11-28T05:28:04.553Z,13.80
2018-11-28T05:30:35.716Z,13.47
2018-11-28T05:33:04.949Z,12.90
2018-11-28T05:35:36.998Z,14.57
2018-11-28T05:38:11.235Z,14.63
2018-11-28T05:40:42.080Z,13.30
2018-11-28T05:43:12.303Z,16.30
2018-11-28T05:45:42.464Z,13.83
2018-11-28T05:48:12.231Z,20.80
2018-11-28T05:50:41.832Z,17.87
2018-11-28T05:53:11.247Z,55.83
2018-11-28T05:55:40.778Z,115.57
2018-11-28T05:58:10.755Z,179.53
2018-11-28T06:00:41.817Z,68.20
2018-11-28T06:03:13.506Z,15.93
2018-11-28T06:05:43.924Z,15.30
2018-11-28T06:08:14.012Z,17.20
2018-11-28T06:10:44.215Z,15.60
2018-11-28T06:13:14.448Z,13.80
2018-11-28T06:15:44.629Z,14.50
2018-11-28T06:18:14.902Z,17.83
2018-11-28T06:20:44.847Z,11.40
2018-11-28T06:23:15.035Z,17.10
2018-11-28T06:25:44.997Z,11.97
2018-11-28T06:28:15.323Z,13.60
2018-11-28T06:30:45.412Z,11.50
2018-11-28T06:33:15.583Z,24.33
2018-11-28T06:35:45.575Z,32.03
2018-11-28T06:38:15.794Z,16.90
2018-11-28T06:40:46.435Z,15.67
2018-11-28T06:43:16.522Z,8.07
2018-11-28T06:45:46.615Z,17.20
2018-11-28T06:48:16.631Z,14.00
2018-11-28T06:50:46.706Z,14.07
2018-11-28T06:53:16.671Z,13.07
2018-11-28T06:55:46.876Z,9.87
2018-11-28T06:58:17.032Z,10.77
2018-11-28T07:00:47.124Z,18.73
2018-11-28T07:03:17.321Z,13.73
2018-11-28T07:05:47.472Z,11.27
2018-11-28T07:08:18.934Z,16.50
2018-11-28T07:10:49.611Z,11.50
2018-11-28T07:13:19.982Z,17.00
2018-11-28T07:15:49.951Z,18.83
2018-11-28T07:18:30.915Z,10.93
2018-11-28T07:21:00.793Z,15.73
2018-11-28T07:23:31.062Z,22.57
2018-11-28T07:26:01.958Z,18.30
2018-11-28T07:28:32.348Z,15.03
2018-11-28T07:31:03.821Z,13.90
2018-11-28T07:33:33.765Z,13.67
2018-11-28T07:36:04.113Z,14.97
2018-11-28T07:38:34.244Z,12.10
2018-11-28T07:41:04.538Z,15.63
2018-11-28T07:43:34.830Z,11.67
2018-11-28T07:46:04.965Z,15.53
2018-11-28T07:48:35.031Z,16.83
2018-11-28T07:51:05.154Z,19.53
2018-11-28T07:53:35.430Z,19.37
2018-11-28T07:56:05.675Z,12.77
2018-11-28T07:58:35.922Z,12.00
2018-11-28T08:01:06.314Z,10.10
2018-11-28T08:03:36.978Z,8.83
2018-11-28T08:06:07.275Z,7.60
2018-11-28T08:08:37.443Z,8.40
2018-11-28T08:11:08.149Z,7.97
2018-11-28T08:13:38.285Z,8.10
2018-11-28T08:16:08.814Z,8.80
2018-11-28T08:18:39.028Z,6.30
2018-11-28T08:21:09.193Z,7.23
2018-11-28T08:23:39.453Z,7.20
2018-11-28T08:26:09.638Z,9.37
2018-11-28T08:28:39.787Z,5.27
2018-11-28T08:31:10.097Z,8.47
2018-11-28T08:33:40.292Z,12.07
2018-11-28T08:36:10.383Z,12.20
2018-11-28T08:38:40.665Z,6.07
2018-11-28T08:41:10.796Z,11.13
2018-11-28T08:43:40.789Z,7.97
2018-11-28T08:46:10.896Z,8.60
2018-11-28T08:48:41.250Z,8.80
2018-11-28T08:51:12.355Z,6.10
2018-11-28T08:53:42.399Z,5.30
2018-11-28T08:56:12.330Z,5.50
2018-11-28T08:58:42.410Z,163.73
2018-11-28T09:01:12.329Z,8.17
2018-11-28T09:03:42.558Z,4.37
2018-11-28T09:06:12.717Z,8.67
2018-11-28T09:08:42.923Z,6.93
2018-11-28T09:11:13.267Z,5.23
2018-11-28T09:13:43.334Z,5.93
2018-11-28T09:16:13.505Z,6.23
2018-11-28T09:18:43.627Z,4.87
2018-11-28T09:21:14.028Z,4.00
2018-11-28T09:23:44.240Z,6.00
2018-11-28T09:26:19.555Z,5.30
2018-11-28T09:28:49.835Z,6.13
2018-11-28T09:31:19.898Z,4.07
2018-11-28T09:33:50.079Z,5.27
2018-11-28T09:36:20.124Z,7.57
2018-11-28T09:38:50.205Z,6.40
2018-11-28T09:41:20.293Z,5.87
2018-11-28T09:43:51.521Z,6.13
2018-11-28T09:46:21.666Z,4.47
2018-11-28T09:48:51.809Z,74.93
2018-11-28T09:51:21.904Z,48.40
2018-11-28T09:53:52.230Z,5.07
2018-11-28T09:56:22.350Z,3.63
2018-11-28T09:58:52.493Z,7.40
2018-11-28T10:01:22.529Z,7.40
2018-11-28T10:03:52.456Z,4.33
2018-11-28T10:06:22.598Z,7.30
2018-11-28T10:08:52.957Z,3.90
2018-11-28T10:11:23.198Z,6.03
2018-11-28T10:13:53.201Z,4.87
2018-11-28T10:16:23.379Z,4.80
2018-11-28T10:18:54.453Z,3.77
2018-11-28T10:21:24.548Z,3.97
2018-11-28T10:23:54.708Z,3.50
2018-11-28T10:26:24.912Z,4.30
2018-11-28T10:28:55.478Z,11.27
2018-11-28T10:31:25.442Z,3.73
2018-11-28T10:33:55.679Z,4.57
2018-11-28T10:36:25.676Z,4.33
2018-11-28T10:38:56.020Z,4.93
2018-11-28T10:41:26.348Z,4.37
2018-11-28T10:43:56.419Z,8.23
2018-11-28T10:46:27.609Z,4.83
2018-11-28T10:48:56.657Z,7.23
2018-11-28T10:51:26.929Z,6.10
2018-11-28T10:53:57.031Z,3.47
2018-11-28T10:56:27.337Z,6.90
2018-11-28T10:58:57.437Z,4.63
2018-11-28T11:01:27.738Z,4.50
2018-11-28T11:04:02.697Z,6.70
2018-11-28T11:06:37.847Z,3.97
2018-11-28T11:09:14.423Z,5.70
2018-11-28T11:11:49.544Z,6.90
2018-11-28T11:14:24.658Z,7.43
2018-11-28T11:16:55.016Z,5.70
2018-11-28T11:19:25.262Z,6.43
2018-11-28T11:21:55.561Z,9.93
2018-11-28T11:24:25.799Z,5.07
2018-11-28T11:26:55.972Z,4.63
2018-11-28T11:29:26.084Z,5.80
2018-11-28T11:31:56.343Z,7.60
2018-11-28T11:34:26.465Z,5.13
2018-11-28T11:36:56.694Z,6.30
2018-11-28T11:39:27.191Z,25.43
2018-11-28T11:41:57.316Z,6.47
2018-11-28T11:44:27.388Z,7.30
2018-11-28T11:46:57.702Z,5.07
2018-11-28T11:49:28.169Z,6.50
2018-11-28T11:51:58.021Z,4.60
2018-11-28T11:54:28.105Z,7.03
2018-11-28T11:56:58.124Z,5.77
2018-11-28T11:59:28.206Z,7.83
2018-11-28T12:01:58.374Z,17.73
2018-11-28T12:04:28.690Z,17.50
2018-11-28T12:06:58.978Z,17.67
2018-11-28T12:09:28.738Z,22.43
2018-11-28T12:11:58.512Z,17.43
2018-11-28T12:14:28.452Z,18.20
2018-11-28T12:16:58.306Z,24.90
2018-11-28T12:19:28.442Z,24.60
2018-11-28T12:21:58.776Z,23.73
2018-11-28T12:24:29.208Z,23.50
2018-11-28T12:27:00.070Z,21.00
2018-11-28T12:29:29.706Z,24.03
2018-11-28T12:32:00.063Z,25.80
2018-11-28T12:34:30.276Z,21.80
2018-11-28T12:37:00.732Z,24.17
2018-11-28T12:39:30.946Z,21.90
2018-11-28T12:42:01.465Z,21.17
2018-11-28T12:44:31.624Z,22.77
2018-11-28T12:47:01.751Z,19.63
2018-11-28T12:49:31.811Z,20.20
2018-11-28T12:52:01.922Z,21.67
2018-11-28T12:54:32.385Z,19.93
2018-11-28T12:57:02.385Z,23.10
2018-11-28T12:59:32.391Z,23.50
2018-11-28T13:02:02.445Z,20.07
2018-11-28T13:04:32.483Z,20.70
2018-11-28T13:07:02.771Z,21.07
2018-11-28T13:09:32.767Z,22.80
2018-11-28T13:12:03.074Z,26.07
2018-11-28T13:14:33.160Z,20.00
2018-11-28T13:17:03.317Z,19.40
2018-11-28T13:19:33.318Z,29.97
2018-11-28T13:22:04.766Z,22.30
2018-11-28T13:24:34.958Z,22.13
2018-11-28T13:27:04.974Z,20.30
2018-11-28T13:29:35.507Z,24.07
2018-11-28T13:32:07.858Z,28.47
2018-11-28T13:34:36.917Z,23.93
2018-11-28T13:37:07.041Z,20.80
2018-11-28T13:39:37.450Z,20.10
2018-11-28T13:42:07.430Z,24.07
2018-11-28T13:44:37.553Z,22.73
2018-11-28T13:47:07.676Z,25.80
2018-11-28T13:49:37.775Z,23.73
2018-11-28T13:52:08.036Z,22.13
2018-11-28T13:55:36.848Z,30.03
2018-11-28T13:57:10.133Z,21.67
2018-11-28T13:59:38.713Z,27.60
2018-11-28T14:02:08.869Z,22.00
2018-11-28T14:04:39.062Z,22.10
2018-11-28T14:07:09.130Z,24.87
2018-11-28T14:09:39.144Z,25.50
2018-11-28T14:12:09.158Z,22.90
2018-11-28T14:14:40.506Z,24.30
2018-11-28T14:17:09.796Z,25.97
2018-11-28T14:19:39.987Z,27.57
2018-11-28T14:22:10.274Z,29.27
2018-11-28T14:24:40.507Z,23.73
2018-11-28T14:27:11.014Z,26.33
2018-11-28T14:29:41.566Z,30.50
2018-11-28T14:32:11.586Z,25.67
2018-11-28T14:34:41.969Z,25.93
2018-11-28T14:37:12.227Z,29.70
2018-11-28T14:39:42.259Z,26.50
2018-11-28T14:42:12.481Z,29.40
2018-11-28T14:44:42.898Z,28.87
2018-11-28T14:47:13.944Z,29.00
2018-11-28T14:49:44.465Z,23.90
2018-11-28T14:52:14.861Z,29.60
2018-11-28T14:54:44.980Z,27.93
2018-11-28T14:57:15.054Z,31.80
2018-11-28T14:59:45.202Z,27.47
2018-11-28T15:02:15.417Z,27.30
2018-11-28T15:04:47.671Z,32.13
2018-11-28T15:07:18.004Z,28.00
2018-11-28T15:09:57.318Z,25.90
2018-11-28T15:12:28.701Z,27.80
2018-11-28T15:14:58.997Z,28.67
2018-11-28T15:17:29.176Z,27.90
2018-11-28T15:20:00.436Z,25.23
2018-11-28T15:22:30.501Z,32.23
2018-11-28T15:25:00.641Z,25.73
2018-11-28T15:27:30.931Z,30.00
2018-11-28T15:30:01.590Z,26.37
2018-11-28T15:32:31.778Z,26.67
2018-11-28T15:35:01.980Z,33.50
2018-11-28T15:37:32.176Z,33.60
2018-11-28T15:40:02.706Z,28.13
2018-11-28T15:42:32.890Z,32.07
2018-11-28T15:45:03.329Z,36.07
2018-11-28T15:47:33.620Z,39.00
2018-11-28T15:50:04.529Z,32.57
2018-11-28T15:52:34.903Z,33.77
2018-11-28T15:55:06.069Z,39.00
2018-11-28T15:57:36.309Z,36.13
2018-11-28T16:00:10.765Z,37.13
2018-11-28T16:02:41.338Z,36.60
2018-11-28T16:05:11.679Z,37.87
2018-11-28T16:07:41.914Z,41.90
2018-11-28T16:10:18.534Z,39.07
2018-11-28T16:12:49.268Z,43.10
2018-11-28T16:15:24.596Z,43.00
2018-11-28T16:17:54.665Z,44.07
2018-11-28T16:20:24.976Z,47.10
2018-11-28T16:22:55.266Z,46.60
2018-11-28T16:25:25.531Z,69.87
2018-11-28T16:27:55.834Z,60.20
2018-11-28T16:30:26.429Z,57.70
2018-11-28T16:32:56.732Z,65.07
2018-11-28T16:35:26.862Z,56.03
2018-11-28T16:37:57.727Z,66.83
2018-11-28T16:40:29.163Z,58.13
2018-11-28T16:43:01.376Z,60.27
2018-11-28T16:45:33.071Z,43.87
2018-11-28T16:48:06.088Z,41.27
2018-11-28T16:50:38.083Z,29.90
2018-11-28T16:53:10.455Z,32.37
2018-11-28T16:55:42.039Z,34.53
2018-11-28T16:58:14.442Z,38.77
2018-11-28T17:00:46.916Z,35.23
2018-11-28T17:03:18.307Z,33.83
2018-11-28T17:05:50.103Z,34.37
2018-11-28T17:08:22.217Z,35.43
2018-11-28T17:10:54.095Z,62.10
2018-11-28T17:13:26.323Z,276.10
2018-11-28T17:15:57.967Z,386.93
2018-11-28T17:18:28.753Z,348.03
2018-11-28T17:20:59.001Z,172.90
2018-11-28T17:23:29.264Z,51.13
2018-11-28T17:25:59.790Z,49.13
2018-11-28T17:28:30.389Z,39.57
2018-11-28T17:31:00.744Z,22.00
2018-11-28T17:33:31.051Z,52.03
2018-11-28T17:36:01.899Z,23.43
2018-11-28T17:38:32.245Z,37.07
2018-11-28T17:41:02.449Z,34.60
2018-11-28T17:43:32.595Z,20.37
2018-11-28T17:46:03.076Z,24.50
2018-11-28T17:48:33.450Z,22.23
2018-11-28T17:51:04.202Z,15.67
2018-11-28T17:53:34.326Z,20.93
2018-11-28T17:56:05.525Z,15.73
2018-11-28T17:58:35.486Z,21.13
2018-11-28T18:01:06.361Z,19.90
2018-11-28T18:03:36.987Z,20.13
2018-11-28T18:06:07.164Z,23.70
2018-11-28T18:08:37.195Z,32.27
2018-11-28T18:11:16.647Z,32.47
2018-11-28T18:13:47.629Z,68.07
2018-11-28T18:16:17.684Z,46.07
2018-11-28T18:18:47.943Z,31.10
2018-11-28T18:21:18.332Z,23.97
2018-11-28T18:23:48.663Z,18.07
2018-11-28T18:26:19.061Z,24.40
2018-11-28T18:28:49.574Z,19.33
2018-11-28T18:31:19.676Z,17.87
2018-11-28T18:33:49.873Z,13.10
2018-11-28T18:36:20.016Z,16.90
2018-11-28T18:38:50.467Z,15.10
2018-11-28T18:41:20.706Z,15.30
2018-11-28T18:43:50.978Z,17.67
2018-11-28T18:46:21.473Z,17.17
2018-11-28T18:48:51.745Z,19.33
2018-11-28T18:51:22.038Z,13.17
2018-11-28T18:53:52.551Z,13.97
2018-11-28T18:56:22.876Z,15.47
2018-11-28T18:58:53.073Z,20.20
2018-11-28T19:01:23.133Z,12.00
2018-11-28T19:03:53.422Z,12.57
2018-11-28T19:06:23.853Z,11.97
2018-11-28T19:08:54.141Z,23.43
2018-11-28T19:11:24.186Z,13.80
2018-11-28T19:13:54.537Z,18.87
2018-11-28T19:16:24.924Z,16.73
2018-11-28T19:18:55.821Z,23.90
2018-11-28T19:21:26.006Z,15.03
2018-11-28T19:23:56.130Z,15.90
2018-11-28T19:26:27.044Z,19.13
2018-11-28T19:28:57.332Z,18.17
2018-11-28T19:31:27.603Z,14.50
2018-11-28T19:33:57.936Z,17.70
2018-11-28T19:36:28.077Z,16.60
2018-11-28T19:38:58.433Z,15.67
2018-11-28T19:41:28.387Z,26.77
2018-11-28T19:43:58.695Z,12.93
2018-11-28T19:46:29.021Z,18.87
2018-11-28T19:48:59.228Z,14.40
2018-11-28T19:51:30.159Z,17.97
2018-11-28T19:54:01.152Z,20.57
2018-11-28T19:56:31.687Z,18.77
2018-11-28T19:59:02.031Z,17.43
2018-11-28T20:01:32.263Z,14.43
2018-11-28T20:04:03.172Z,18.17
2018-11-28T20:06:33.613Z,10.80
2018-11-28T20:09:04.212Z,11.17
2018-11-28T20:11:34.377Z,10.40
2018-11-28T20:14:05.202Z,11.27
2018-11-28T20:16:35.678Z,10.83
2018-11-28T20:19:05.966Z,10.30
2018-11-28T20:21:36.097Z,14.27
2018-11-28T20:24:07.352Z,15.00
2018-11-28T20:26:37.477Z,16.50
2018-11-28T20:29:08.427Z,19.00
2018-11-28T20:31:39.280Z,18.90
2018-11-28T20:34:09.653Z,15.40
2018-11-28T20:36:40.028Z,15.00
2018-11-28T20:39:10.574Z,13.60
2018-11-28T20:41:40.785Z,20.33
2018-11-28T20:44:10.978Z,15.73
2018-11-28T20:46:41.707Z,16.23
2018-11-28T20:49:12.053Z,15.70
2018-11-28T20:51:42.447Z,18.33
2018-11-28T20:54:12.709Z,17.27
2018-11-28T20:56:42.982Z,18.03
2018-11-28T20:59:13.318Z,20.13
2018-11-28T21:01:43.688Z,18.53
2018-11-28T21:04:14.129Z,18.57
2018-11-28T21:06:44.377Z,15.33
2018-11-28T21:09:14.716Z,14.43
2018-11-28T21:11:44.721Z,11.73
2018-11-28T21:14:15.178Z,12.03
2018-11-28T21:16:45.405Z,14.10
2018-11-28T21:19:15.580Z,9.90
2018-11-28T21:21:45.942Z,11.53
2018-11-28T21:24:16.602Z,11.43
2018-11-28T21:26:46.669Z,11.27
2018-11-28T21:29:17.491Z,10.93
2018-11-28T21:31:47.635Z,11.40
2018-11-28T21:34:18.368Z,12.23
2018-11-28T21:36:48.461Z,12.43
2018-11-28T21:39:20.049Z,12.23
2018-11-28T21:41:50.198Z,13.23
2018-11-28T21:44:21.366Z,11.00
2018-11-28T21:46:52.472Z,8.60
2018-11-28T21:49:22.756Z,10.93
2018-11-28T21:51:52.851Z,8.60
2018-11-28T21:54:23.756Z,8.70
2018-11-28T21:56:54.051Z,11.80
2018-11-28T21:59:24.309Z,10.33
2018-11-28T22:01:54.396Z,11.30
2018-11-28T22:04:24.566Z,13.43
2018-11-28T22:06:54.806Z,12.30
2018-11-28T22:09:24.987Z,10.20
2018-11-28T22:11:55.330Z,9.97
2018-11-28T22:14:25.404Z,9.27
2018-11-28T22:16:55.471Z,8.53
2018-11-28T22:19:25.570Z,11.67
2018-11-28T22:21:55.704Z,9.43
2018-11-28T22:24:26.384Z,9.70
2018-11-28T22:26:56.545Z,10.00
2018-11-28T22:29:26.707Z,8.37
2018-11-28T22:31:56.740Z,6.43
2018-11-28T22:34:26.758Z,8.70
2018-11-28T22:36:56.937Z,4.10
2018-11-28T22:39:27.191Z,4.33
2018-11-28T22:41:57.557Z,4.27
2018-11-28T22:44:27.865Z,6.20
2018-11-28T22:46:58.183Z,3.67
2018-11-28T22:49:28.501Z,5.43
2018-11-28T22:51:58.812Z,3.20
2018-11-28T22:54:29.342Z,4.83
2018-11-28T22:56:59.448Z,5.63
2018-11-28T22:59:29.565Z,4.17
2018-11-28T23:04:06.994Z,4.07
2018-11-28T23:06:37.185Z,4.80
2018-11-28T23:09:08.706Z,5.10
2018-11-28T23:11:38.973Z,4.87
2018-11-28T23:14:09.198Z,4.03
2018-11-28T23:16:39.412Z,5.93
2018-11-28T23:19:09.522Z,4.63
2018-11-28T23:21:39.935Z,6.97
2018-11-28T23:24:09.952Z,4.33
2018-11-28T23:26:40.121Z,5.60
2018-11-28T23:29:10.135Z,7.20
2018-11-28T23:31:40.397Z,6.23
2018-11-28T23:34:10.406Z,6.77
2018-11-28T23:36:40.541Z,6.20
2018-11-28T23:39:10.637Z,4.23
2018-11-28T23:44:37.581Z,5.67
2018-11-28T23:47:08.019Z,6.13
2018-11-28T23:49:38.165Z,9.23
2018-11-28T23:52:08.275Z,11.60
2018-11-28T23:54:38.427Z,8.63
2018-11-28T23:57:08.519Z,8.60
2018-11-28T23:59:38.974Z,9.33
